sensor_id;sensor_type;location;lat;lon;timestamp;pressure;altitude;pressure_sealevel;temperature;humidity
79150;BME280;68563;45.644;13.782;2023-08-17T00:00:16;100984.56;;;28.97;41.45
79150;BME280;68563;45.644;13.782;2023-08-17T00:02:43;100993.34;;;28.88;41.67
79150;BME280;68563;45.644;13.782;2023-08-17T00:05:09;100980.41;;;28.83;41.66
79150;BME280;68563;45.644;13.782;2023-08-17T00:07:35;100978.75;;;28.82;41.56
79150;BME280;68563;45.644;13.782;2023-08-17T00:10:01;100990.78;;;28.76;41.68
79150;BME280;68563;45.644;13.782;2023-08-17T00:12:26;101001.19;;;28.79;41.59
79150;BME280;68563;45.644;13.782;2023-08-17T00:14:52;100980.41;;;28.62;42.28
79150;BME280;68563;45.644;13.782;2023-08-17T00:17:18;100975.16;;;28.72;41.88
79150;BME280;68563;45.644;13.782;2023-08-17T00:19:44;100975.91;;;28.74;41.62
79150;BME280;68563;45.644;13.782;2023-08-17T00:22:09;100986.84;;;28.80;41.72
79150;BME280;68563;45.644;13.782;2023-08-17T00:24:35;100989.09;;;28.75;41.83
79150;BME280;68563;45.644;13.782;2023-08-17T00:27:00;100986.56;;;28.74;41.74
79150;BME280;68563;45.644;13.782;2023-08-17T00:29:25;100997.16;;;28.53;42.24
79150;BME280;68563;45.644;13.782;2023-08-17T00:31:51;101004.38;;;28.62;42.44
79150;BME280;68563;45.644;13.782;2023-08-17T00:34:18;100993.00;;;28.60;42.40
79150;BME280;68563;45.644;13.782;2023-08-17T00:36:43;101000.91;;;28.61;42.02
79150;BME280;68563;45.644;13.782;2023-08-17T00:39:09;100999.31;;;28.59;42.05
79150;BME280;68563;45.644;13.782;2023-08-17T00:41:34;101007.78;;;28.64;42.00
79150;BME280;68563;45.644;13.782;2023-08-17T00:44:00;101001.47;;;28.65;41.99
79150;BME280;68563;45.644;13.782;2023-08-17T00:46:25;100997.22;;;28.74;42.21
79150;BME280;68563;45.644;13.782;2023-08-17T00:48:52;100993.88;;;28.60;42.21
79150;BME280;68563;45.644;13.782;2023-08-17T00:51:21;100990.88;;;28.54;42.30
79150;BME280;68563;45.644;13.782;2023-08-17T00:53:53;100987.56;;;28.61;41.99
79150;BME280;68563;45.644;13.782;2023-08-17T00:56:19;100993.00;;;28.60;42.27
79150;BME280;68563;45.644;13.782;2023-08-17T00:58:45;100983.84;;;28.53;42.44
79150;BME280;68563;45.644;13.782;2023-08-17T01:01:10;100994.41;;;28.54;42.57
79150;BME280;68563;45.644;13.782;2023-08-17T01:03:37;100987.22;;;28.55;42.38
79150;BME280;68563;45.644;13.782;2023-08-17T01:06:02;100984.72;;;28.53;42.61
79150;BME280;68563;45.644;13.782;2023-08-17T01:08:29;100990.41;;;28.48;42.95
79150;BME280;68563;45.644;13.782;2023-08-17T01:11:06;100983.84;;;28.53;42.65
79150;BME280;68563;45.644;13.782;2023-08-17T01:13:44;100996.72;;;28.47;42.97
79150;BME280;68563;45.644;13.782;2023-08-17T01:16:15;100991.25;;;28.49;42.78
79150;BME280;68563;45.644;13.782;2023-08-17T01:18:46;100988.72;;;28.47;42.37
79150;BME280;68563;45.644;13.782;2023-08-17T01:21:14;100996.34;;;28.52;42.54
79150;BME280;68563;45.644;13.782;2023-08-17T01:23:44;100989.66;;;28.58;42.63
79150;BME280;68563;45.644;13.782;2023-08-17T01:26:10;100992.75;;;28.63;42.27
79150;BME280;68563;45.644;13.782;2023-08-17T01:28:35;100978.72;;;28.61;42.66
79150;BME280;68563;45.644;13.782;2023-08-17T01:31:05;100989.81;;;28.66;42.27
79150;BME280;68563;45.644;13.782;2023-08-17T01:33:44;100988.94;;;28.56;42.42
79150;BME280;68563;45.644;13.782;2023-08-17T01:36:30;100986.00;;;28.59;42.49
79150;BME280;68563;45.644;13.782;2023-08-17T01:38:56;100987.69;;;28.60;42.47
79150;BME280;68563;45.644;13.782;2023-08-17T01:41:23;100994.84;;;28.59;42.51
79150;BME280;68563;45.644;13.782;2023-08-17T01:43:49;100997.66;;;28.58;42.37
79150;BME280;68563;45.644;13.782;2023-08-17T01:46:16;100994.13;;;28.57;42.41
79150;BME280;68563;45.644;13.782;2023-08-17T01:48:43;100993.09;;;28.48;41.97
79150;BME280;68563;45.644;13.782;2023-08-17T01:51:10;100983.41;;;28.47;41.90
79150;BME280;68563;45.644;13.782;2023-08-17T01:53:36;100978.94;;;28.48;41.91
79150;BME280;68563;45.644;13.782;2023-08-17T01:56:02;100977.34;;;28.45;42.10
79150;BME280;68563;45.644;13.782;2023-08-17T01:58:27;100972.16;;;28.44;41.87
79150;BME280;68563;45.644;13.782;2023-08-17T02:00:53;100984.38;;;28.46;42.10
79150;BME280;68563;45.644;13.782;2023-08-17T02:03:18;100976.06;;;28.40;42.26
79150;BME280;68563;45.644;13.782;2023-08-17T02:05:47;100986.81;;;28.38;42.57
79150;BME280;68563;45.644;13.782;2023-08-17T02:08:12;100979.56;;;28.40;42.05
79150;BME280;68563;45.644;13.782;2023-08-17T02:10:38;100978.38;;;28.33;42.46
79150;BME280;68563;45.644;13.782;2023-08-17T02:13:03;100977.78;;;28.29;42.15
79150;BME280;68563;45.644;13.782;2023-08-17T02:15:29;100977.19;;;28.26;42.30
79150;BME280;68563;45.644;13.782;2023-08-17T02:17:57;100974.44;;;28.27;42.69
79150;BME280;68563;45.644;13.782;2023-08-17T02:20:22;100980.31;;;28.31;42.04
79150;BME280;68563;45.644;13.782;2023-08-17T02:22:47;100979.84;;;28.37;42.19
79150;BME280;68563;45.644;13.782;2023-08-17T02:25:13;100979.34;;;28.32;41.86
79150;BME280;68563;45.644;13.782;2023-08-17T02:27:38;100980.84;;;28.25;42.53
79150;BME280;68563;45.644;13.782;2023-08-17T02:30:04;100973.25;;;28.20;42.74
79150;BME280;68563;45.644;13.782;2023-08-17T02:32:30;100976.28;;;28.15;42.86
79150;BME280;68563;45.644;13.782;2023-08-17T02:34:55;100980.88;;;28.13;43.03
79150;BME280;68563;45.644;13.782;2023-08-17T02:37:20;100971.47;;;28.09;43.16
79150;BME280;68563;45.644;13.782;2023-08-17T02:39:46;100966.88;;;28.00;43.36
79150;BME280;68563;45.644;13.782;2023-08-17T02:42:11;100971.91;;;28.03;43.53
79150;BME280;68563;45.644;13.782;2023-08-17T02:44:37;100968.09;;;27.96;43.49
79150;BME280;68563;45.644;13.782;2023-08-17T02:47:02;100967.63;;;27.91;43.90
79150;BME280;68563;45.644;13.782;2023-08-17T02:49:27;100966.78;;;27.90;43.62
79150;BME280;68563;45.644;13.782;2023-08-17T02:51:53;100973.34;;;27.75;44.23
79150;BME280;68563;45.644;13.782;2023-08-17T02:54:18;100965.81;;;27.80;43.88
79150;BME280;68563;45.644;13.782;2023-08-17T02:56:44;100971.28;;;27.78;44.10
79150;BME280;68563;45.644;13.782;2023-08-17T02:59:09;100975.03;;;27.76;44.09
79150;BME280;68563;45.644;13.782;2023-08-17T03:01:35;100976.16;;;27.73;44.42
79150;BME280;68563;45.644;13.782;2023-08-17T03:04:00;100964.41;;;27.76;43.81
79150;BME280;68563;45.644;13.782;2023-08-17T03:06:26;100967.44;;;27.71;43.93
79150;BME280;68563;45.644;13.782;2023-08-17T03:08:51;100963.66;;;27.74;44.04
79150;BME280;68563;45.644;13.782;2023-08-17T03:11:18;100968.88;;;27.75;44.07
79150;BME280;68563;45.644;13.782;2023-08-17T03:13:43;100959.59;;;27.69;44.44
79150;BME280;68563;45.644;13.782;2023-08-17T03:16:11;100964.63;;;27.73;44.20
79150;BME280;68563;45.644;13.782;2023-08-17T03:18:36;100966.94;;;27.77;44.24
79150;BME280;68563;45.644;13.782;2023-08-17T03:21:01;100968.03;;;27.75;44.30
79150;BME280;68563;45.644;13.782;2023-08-17T03:23:27;100973.72;;;27.70;44.26
79150;BME280;68563;45.644;13.782;2023-08-17T03:25:53;100955.00;;;27.60;44.46
79150;BME280;68563;45.644;13.782;2023-08-17T03:28:18;100959.59;;;27.69;44.60
79150;BME280;68563;45.644;13.782;2023-08-17T03:30:44;100955.09;;;27.70;44.35
79150;BME280;68563;45.644;13.782;2023-08-17T03:33:09;100952.94;;;27.75;44.13
79150;BME280;68563;45.644;13.782;2023-08-17T03:35:35;100961.66;;;27.66;44.30
79150;BME280;68563;45.644;13.782;2023-08-17T03:38:00;100957.41;;;27.63;44.45
79150;BME280;68563;45.644;13.782;2023-08-17T03:40:25;100957.16;;;27.66;44.46
79150;BME280;68563;45.644;13.782;2023-08-17T03:42:51;100952.19;;;27.62;44.48
79150;BME280;68563;45.644;13.782;2023-08-17T03:45:17;100950.78;;;27.58;44.53
79150;BME280;68563;45.644;13.782;2023-08-17T03:47:43;100949.81;;;27.59;44.22
79150;BME280;68563;45.644;13.782;2023-08-17T03:50:09;100945.69;;;27.54;44.69
79150;BME280;68563;45.644;13.782;2023-08-17T03:52:35;100947.38;;;27.55;44.64
79150;BME280;68563;45.644;13.782;2023-08-17T03:55:01;100960.56;;;27.57;44.84
79150;BME280;68563;45.644;13.782;2023-08-17T03:57:26;100962.25;;;27.58;44.52
79150;BME280;68563;45.644;13.782;2023-08-17T03:59:52;100969.38;;;27.58;44.90
79150;BME280;68563;45.644;13.782;2023-08-17T04:02:17;100972.28;;;27.54;44.47
79150;BME280;68563;45.644;13.782;2023-08-17T04:04:42;100974.56;;;27.59;44.41
79150;BME280;68563;45.644;13.782;2023-08-17T04:07:08;100971.31;;;27.55;44.46
79150;BME280;68563;45.644;13.782;2023-08-17T04:09:33;100978.69;;;27.52;44.49
79150;BME280;68563;45.644;13.782;2023-08-17T04:11:59;100987.91;;;27.48;44.82
79150;BME280;68563;45.644;13.782;2023-08-17T04:14:24;100989.97;;;27.44;44.48
79150;BME280;68563;45.644;13.782;2023-08-17T04:16:51;100987.16;;;27.34;44.77
79150;BME280;68563;45.644;13.782;2023-08-17T04:19:17;100985.34;;;27.35;44.83
79150;BME280;68563;45.644;13.782;2023-08-17T04:21:42;100991.63;;;27.34;44.92
79150;BME280;68563;45.644;13.782;2023-08-17T04:24:08;100996.31;;;27.30;44.89
79150;BME280;68563;45.644;13.782;2023-08-17T04:26:33;100988.13;;;27.33;44.93
79150;BME280;68563;45.644;13.782;2023-08-17T04:28:58;100995.75;;;27.38;44.67
79150;BME280;68563;45.644;13.782;2023-08-17T04:31:24;100985.34;;;27.35;44.73
79150;BME280;68563;45.644;13.782;2023-08-17T04:33:49;100986.06;;;27.37;44.82
79150;BME280;68563;45.644;13.782;2023-08-17T04:36:15;100987.38;;;27.31;44.89
79150;BME280;68563;45.644;13.782;2023-08-17T04:38:40;100991.38;;;27.37;44.76
79150;BME280;68563;45.644;13.782;2023-08-17T04:41:05;100999.59;;;27.34;44.91
79150;BME280;68563;45.644;13.782;2023-08-17T04:43:31;100994.66;;;27.29;44.86
79150;BME280;68563;45.644;13.782;2023-08-17T04:45:56;101002.75;;;27.28;45.08
79150;BME280;68563;45.644;13.782;2023-08-17T04:48:22;100995.28;;;27.33;45.19
79150;BME280;68563;45.644;13.782;2023-08-17T04:50:48;101005.31;;;27.52;44.57
79150;BME280;68563;45.644;13.782;2023-08-17T04:53:13;100996.00;;;27.58;44.55
79150;BME280;68563;45.644;13.782;2023-08-17T04:55:39;101011.84;;;27.70;44.58
79150;BME280;68563;45.644;13.782;2023-08-17T04:58:04;101000.56;;;27.78;43.88
79150;BME280;68563;45.644;13.782;2023-08-17T05:00:30;101002.13;;;27.81;43.68
79150;BME280;68563;45.644;13.782;2023-08-17T05:02:56;101009.59;;;27.87;44.11
79150;BME280;68563;45.644;13.782;2023-08-17T05:05:21;101002.22;;;27.91;44.07
79150;BME280;68563;45.644;13.782;2023-08-17T05:07:47;101009.09;;;27.93;44.09
79150;BME280;68563;45.644;13.782;2023-08-17T05:10:13;101014.19;;;27.96;43.69
79150;BME280;68563;45.644;13.782;2023-08-17T05:12:38;101015.50;;;28.02;43.97
79150;BME280;68563;45.644;13.782;2023-08-17T05:15:04;101012.13;;;28.00;44.01
79150;BME280;68563;45.644;13.782;2023-08-17T05:17:30;101009.81;;;28.07;43.89
79150;BME280;68563;45.644;13.782;2023-08-17T05:19:55;101009.44;;;28.11;43.87
79150;BME280;68563;45.644;13.782;2023-08-17T05:22:21;101013.28;;;28.18;43.49
79150;BME280;68563;45.644;13.782;2023-08-17T05:24:46;101013.66;;;28.25;43.80
79150;BME280;68563;45.644;13.782;2023-08-17T05:27:12;101008.78;;;28.30;43.51
79150;BME280;68563;45.644;13.782;2023-08-17T05:29:37;101021.44;;;28.38;43.44
79150;BME280;68563;45.644;13.782;2023-08-17T05:32:03;101017.44;;;28.44;43.11
79150;BME280;68563;45.644;13.782;2023-08-17T05:34:28;101023.34;;;28.47;42.70
79150;BME280;68563;45.644;13.782;2023-08-17T05:36:54;101021.72;;;28.56;42.69
79150;BME280;68563;45.644;13.782;2023-08-17T05:39:19;101027.94;;;28.57;42.69
79150;BME280;68563;45.644;13.782;2023-08-17T05:41:45;101026.22;;;28.56;42.99
79150;BME280;68563;45.644;13.782;2023-08-17T05:44:10;101010.25;;;28.56;43.00
79150;BME280;68563;45.644;13.782;2023-08-17T05:46:36;101020.81;;;28.67;42.58
79150;BME280;68563;45.644;13.782;2023-08-17T05:49:02;101022.31;;;28.71;42.48
79150;BME280;68563;45.644;13.782;2023-08-17T05:51:28;101035.13;;;28.77;42.39
79150;BME280;68563;45.644;13.782;2023-08-17T05:53:53;101033.72;;;28.83;42.27
79150;BME280;68563;45.644;13.782;2023-08-17T05:56:19;101034.31;;;28.87;41.94
79150;BME280;68563;45.644;13.782;2023-08-17T05:58:44;101028.72;;;28.90;41.42
79150;BME280;68563;45.644;13.782;2023-08-17T06:01:10;101038.88;;;28.96;41.76
79150;BME280;68563;45.644;13.782;2023-08-17T06:03:37;101035.97;;;28.99;41.11
79150;BME280;68563;45.644;13.782;2023-08-17T06:06:03;101041.16;;;29.01;40.99
79150;BME280;68563;45.644;13.782;2023-08-17T06:08:30;101036.41;;;29.04;41.03
79150;BME280;68563;45.644;13.782;2023-08-17T06:10:56;101038.34;;;29.02;40.69
79150;BME280;68563;45.644;13.782;2023-08-17T06:13:21;101034.56;;;29.05;40.92
79150;BME280;68563;45.644;13.782;2023-08-17T06:15:47;101038.94;;;29.06;40.74
79150;BME280;68563;45.644;13.782;2023-08-17T06:18:12;101035.28;;;29.07;40.92
79150;BME280;68563;45.644;13.782;2023-08-17T06:20:38;101038.28;;;29.13;41.14
79150;BME280;68563;45.644;13.782;2023-08-17T06:23:03;101030.13;;;29.15;40.93
79150;BME280;68563;45.644;13.782;2023-08-17T06:25:28;101034.94;;;29.21;40.69
79150;BME280;68563;45.644;13.782;2023-08-17T06:27:54;101031.16;;;29.24;41.29
79150;BME280;68563;45.644;13.782;2023-08-17T06:30:19;101030.19;;;29.25;40.90
79150;BME280;68563;45.644;13.782;2023-08-17T06:32:45;101029.47;;;29.23;40.85
79150;BME280;68563;45.644;13.782;2023-08-17T06:35:10;101032.53;;;29.18;40.65
79150;BME280;68563;45.644;13.782;2023-08-17T06:37:36;101028.88;;;29.19;41.17
79150;BME280;68563;45.644;13.782;2023-08-17T06:40:04;101015.69;;;29.18;40.66
79150;BME280;68563;45.644;13.782;2023-08-17T06:42:34;101027.25;;;29.28;40.67
79150;BME280;68563;45.644;13.782;2023-08-17T06:44:59;101030.03;;;29.26;40.96
79150;BME280;68563;45.644;13.782;2023-08-17T06:47:25;101033.91;;;29.34;40.93
79150;BME280;68563;45.644;13.782;2023-08-17T06:49:51;101030.88;;;29.48;40.76
79150;BME280;68563;45.644;13.782;2023-08-17T06:52:16;101032.16;;;29.54;40.79
79150;BME280;68563;45.644;13.782;2023-08-17T06:54:42;101028.91;;;32.20;35.81
79150;BME280;68563;45.644;13.782;2023-08-17T06:57:07;101027.16;;;35.51;30.11
79150;BME280;68563;45.644;13.782;2023-08-17T06:59:32;101031.25;;;37.01;27.78
79150;BME280;68563;45.644;13.782;2023-08-17T07:01:59;101026.19;;;35.27;29.87
79150;BME280;68563;45.644;13.782;2023-08-17T07:04:25;101031.84;;;36.12;29.03
79150;BME280;68563;45.644;13.782;2023-08-17T07:06:50;101027.88;;;38.39;25.35
79150;BME280;68563;45.644;13.782;2023-08-17T07:09:16;101034.81;;;39.47;24.23
79150;BME280;68563;45.644;13.782;2023-08-17T07:11:41;101037.78;;;37.22;26.93
79150;BME280;68563;45.644;13.782;2023-08-17T07:14:06;101035.72;;;37.24;27.13
79150;BME280;68563;45.644;13.782;2023-08-17T07:16:32;101034.81;;;39.05;24.61
79150;BME280;68563;45.644;13.782;2023-08-17T07:18:58;101040.03;;;40.37;22.72
79150;BME280;68563;45.644;13.782;2023-08-17T07:21:23;101033.09;;;38.19;25.61
79150;BME280;68563;45.644;13.782;2023-08-17T07:23:50;101037.84;;;37.58;26.70
79150;BME280;68563;45.644;13.782;2023-08-17T07:26:15;101041.28;;;39.46;23.92
79150;BME280;68563;45.644;13.782;2023-08-17T07:28:42;101032.06;;;40.82;22.41
79150;BME280;68563;45.644;13.782;2023-08-17T07:31:08;101027.69;;;38.69;25.16
79150;BME280;68563;45.644;13.782;2023-08-17T07:33:33;101033.13;;;37.82;25.79
79150;BME280;68563;45.644;13.782;2023-08-17T07:35:58;101032.59;;;39.64;23.12
79150;BME280;68563;45.644;13.782;2023-08-17T07:38:24;101026.44;;;40.64;21.22
79150;BME280;68563;45.644;13.782;2023-08-17T07:40:50;101032.91;;;38.99;24.01
79150;BME280;68563;45.644;13.782;2023-08-17T07:43:15;101034.69;;;37.91;25.29
79150;BME280;68563;45.644;13.782;2023-08-17T07:45:40;101038.13;;;40.78;22.57
79150;BME280;68563;45.644;13.782;2023-08-17T07:48:06;101036.75;;;42.37;20.20
79150;BME280;68563;45.644;13.782;2023-08-17T07:50:31;101034.28;;;43.16;19.38
79150;BME280;68563;45.644;13.782;2023-08-17T07:52:57;101028.38;;;43.19;19.17
79150;BME280;68563;45.644;13.782;2023-08-17T07:55:22;101030.28;;;43.19;19.16
79150;BME280;68563;45.644;13.782;2023-08-17T07:57:48;101026.94;;;43.17;18.64
79150;BME280;68563;45.644;13.782;2023-08-17T08:00:14;101015.81;;;43.18;18.72
79150;BME280;68563;45.644;13.782;2023-08-17T08:02:39;101023.53;;;43.22;18.75
79150;BME280;68563;45.644;13.782;2023-08-17T08:05:05;101030.25;;;43.38;18.08
79150;BME280;68563;45.644;13.782;2023-08-17T08:07:31;101029.44;;;43.67;17.55
79150;BME280;68563;45.644;13.782;2023-08-17T08:09:57;101025.44;;;43.94;17.74
79150;BME280;68563;45.644;13.782;2023-08-17T08:12:23;101022.31;;;42.99;18.35
79150;BME280;68563;45.644;13.782;2023-08-17T08:14:48;101018.50;;;40.82;20.89
79150;BME280;68563;45.644;13.782;2023-08-17T08:17:15;101021.63;;;39.30;22.79
79150;BME280;68563;45.644;13.782;2023-08-17T08:19:40;101010.88;;;38.23;24.18
79150;BME280;68563;45.644;13.782;2023-08-17T08:22:06;101018.38;;;37.33;25.50
79150;BME280;68563;45.644;13.782;2023-08-17T08:24:31;101010.16;;;36.51;26.94
79150;BME280;68563;45.644;13.782;2023-08-17T08:27:00;101014.47;;;35.91;27.72
79150;BME280;68563;45.644;13.782;2023-08-17T08:29:26;101013.72;;;35.34;29.40
79150;BME280;68563;45.644;13.782;2023-08-17T08:31:52;101006.44;;;35.03;30.20
79150;BME280;68563;45.644;13.782;2023-08-17T08:34:18;101009.34;;;34.68;31.01
79150;BME280;68563;45.644;13.782;2023-08-17T08:36:43;101006.19;;;34.48;31.51
79150;BME280;68563;45.644;13.782;2023-08-17T08:39:09;101004.81;;;34.53;30.76
79150;BME280;68563;45.644;13.782;2023-08-17T08:41:37;101001.13;;;34.20;31.69
79150;BME280;68563;45.644;13.782;2023-08-17T08:44:03;101010.69;;;34.15;31.94
79150;BME280;68563;45.644;13.782;2023-08-17T08:46:30;101005.13;;;34.00;32.20
79150;BME280;68563;45.644;13.782;2023-08-17T08:48:58;101007.47;;;33.86;32.56
79150;BME280;68563;45.644;13.782;2023-08-17T08:51:27;101017.53;;;33.84;32.73
79150;BME280;68563;45.644;13.782;2023-08-17T08:54:01;101010.09;;;33.78;32.55
79150;BME280;68563;45.644;13.782;2023-08-17T08:56:31;101008.72;;;33.74;32.95
79150;BME280;68563;45.644;13.782;2023-08-17T08:58:59;101006.91;;;33.75;32.82
79150;BME280;68563;45.644;13.782;2023-08-17T09:01:26;101013.75;;;33.52;31.75
79150;BME280;68563;45.644;13.782;2023-08-17T09:03:52;101005.53;;;33.62;31.68
79150;BME280;68563;45.644;13.782;2023-08-17T09:06:19;101005.03;;;33.67;31.51
79150;BME280;68563;45.644;13.782;2023-08-17T09:08:45;101004.38;;;33.65;32.50
79150;BME280;68563;45.644;13.782;2023-08-17T09:11:13;101010.41;;;33.59;32.70
79150;BME280;68563;45.644;13.782;2023-08-17T09:13:38;100997.78;;;33.59;32.05
79150;BME280;68563;45.644;13.782;2023-08-17T09:16:04;101000.66;;;33.58;32.08
79150;BME280;68563;45.644;13.782;2023-08-17T09:18:29;101001.31;;;33.51;32.50
79150;BME280;68563;45.644;13.782;2023-08-17T09:20:56;100998.25;;;33.46;32.54
79150;BME280;68563;45.644;13.782;2023-08-17T09:23:22;100995.44;;;33.48;32.24
79150;BME280;68563;45.644;13.782;2023-08-17T09:25:49;100992.69;;;33.39;32.85
79150;BME280;68563;45.644;13.782;2023-08-17T09:28:15;101000.41;;;33.34;32.90
79150;BME280;68563;45.644;13.782;2023-08-17T09:30:57;101002.50;;;33.22;32.91
79150;BME280;68563;45.644;13.782;2023-08-17T09:33:25;100997.31;;;33.21;32.92
79150;BME280;68563;45.644;13.782;2023-08-17T09:35:52;101000.00;;;33.21;33.25
79150;BME280;68563;45.644;13.782;2023-08-17T09:38:19;100985.03;;;33.18;33.13
79150;BME280;68563;45.644;13.782;2023-08-17T09:40:45;100987.56;;;33.20;33.25
79150;BME280;68563;45.644;13.782;2023-08-17T09:43:11;100984.84;;;33.12;33.35
79150;BME280;68563;45.644;13.782;2023-08-17T09:45:40;100991.03;;;33.12;33.55
79150;BME280;68563;45.644;13.782;2023-08-17T09:48:07;100993.06;;;33.10;33.20
79150;BME280;68563;45.644;13.782;2023-08-17T09:50:33;100994.53;;;33.04;33.75
79150;BME280;68563;45.644;13.782;2023-08-17T09:52:58;100985.09;;;32.92;33.51
79150;BME280;68563;45.644;13.782;2023-08-17T09:55:24;100995.81;;;32.92;33.68
79150;BME280;68563;45.644;13.782;2023-08-17T09:57:50;100998.59;;;32.82;33.48
79150;BME280;68563;45.644;13.782;2023-08-17T10:00:17;101001.94;;;32.84;33.41
79150;BME280;68563;45.644;13.782;2023-08-17T10:02:50;100995.66;;;32.75;33.48
79150;BME280;68563;45.644;13.782;2023-08-17T10:05:18;101002.88;;;32.75;33.23
79150;BME280;68563;45.644;13.782;2023-08-17T10:07:47;100997.28;;;32.68;33.52
79150;BME280;68563;45.644;13.782;2023-08-17T10:10:16;101000.59;;;32.62;33.38
79150;BME280;68563;45.644;13.782;2023-08-17T10:12:46;100995.34;;;32.52;36.67
79150;BME280;68563;45.644;13.782;2023-08-17T10:15:15;100993.91;;;32.40;37.46
79150;BME280;68563;45.644;13.782;2023-08-17T10:20:24;100991.97;;;32.24;37.45
79150;BME280;68563;45.644;13.782;2023-08-17T10:23:17;100990.00;;;32.16;36.53
79150;BME280;68563;45.644;13.782;2023-08-17T10:25:44;100996.81;;;32.10;36.94
79150;BME280;68563;45.644;13.782;2023-08-17T10:28:10;100993.59;;;32.07;36.33
79150;BME280;68563;45.644;13.782;2023-08-17T10:30:37;100991.16;;;31.95;36.34
79150;BME280;68563;45.644;13.782;2023-08-17T10:33:05;100993.66;;;31.97;37.11
79150;BME280;68563;45.644;13.782;2023-08-17T10:35:32;100986.94;;;31.93;37.36
79150;BME280;68563;45.644;13.782;2023-08-17T10:37:58;100981.13;;;31.79;37.25
79150;BME280;68563;45.644;13.782;2023-08-17T10:40:28;100977.53;;;31.71;37.74
79150;BME280;68563;45.644;13.782;2023-08-17T10:42:54;100984.09;;;31.76;36.80
79150;BME280;68563;45.644;13.782;2023-08-17T10:45:29;100984.09;;;31.76;37.22
79150;BME280;68563;45.644;13.782;2023-08-17T10:50:32;100986.91;;;31.75;37.57
79150;BME280;68563;45.644;13.782;2023-08-17T10:53:04;100994.56;;;31.70;36.97
79150;BME280;68563;45.644;13.782;2023-08-17T10:58:02;100989.75;;;31.73;37.64
79150;BME280;68563;45.644;13.782;2023-08-17T11:00:33;100987.53;;;31.69;37.72
79150;BME280;68563;45.644;13.782;2023-08-17T11:03:04;100989.78;;;31.63;37.76
79150;BME280;68563;45.644;13.782;2023-08-17T11:08:06;100988.16;;;31.53;38.98
79150;BME280;68563;45.644;13.782;2023-08-17T11:10:32;100985.06;;;31.47;39.61
79150;BME280;68563;45.644;13.782;2023-08-17T11:12:59;100984.56;;;31.44;39.75
79150;BME280;68563;45.644;13.782;2023-08-17T11:15:45;100993.97;;;31.48;40.08
79150;BME280;68563;45.644;13.782;2023-08-17T11:18:13;100976.09;;;31.39;39.31
79150;BME280;68563;45.644;13.782;2023-08-17T11:20:40;100986.81;;;31.39;39.79
79150;BME280;68563;45.644;13.782;2023-08-17T11:23:07;100982.31;;;31.39;39.92
79150;BME280;68563;45.644;13.782;2023-08-17T11:25:33;100984.00;;;31.40;39.14
79150;BME280;68563;45.644;13.782;2023-08-17T11:28:02;100987.66;;;31.39;39.19
79150;BME280;68563;45.644;13.782;2023-08-17T11:30:28;100989.94;;;31.34;39.50
79150;BME280;68563;45.644;13.782;2023-08-17T11:32:55;100989.38;;;31.30;39.22
79150;BME280;68563;45.644;13.782;2023-08-17T11:35:21;100992.06;;;31.30;40.38
79150;BME280;68563;45.644;13.782;2023-08-17T11:37:48;100988.56;;;31.30;39.35
79150;BME280;68563;45.644;13.782;2023-08-17T11:40:14;100996.84;;;31.37;38.65
79150;BME280;68563;45.644;13.782;2023-08-17T11:42:40;100973.31;;;31.30;37.07
79150;BME280;68563;45.644;13.782;2023-08-17T11:45:07;100975.00;;;31.31;37.68
79150;BME280;68563;45.644;13.782;2023-08-17T11:47:36;100982.75;;;31.34;37.94
79150;BME280;68563;45.644;13.782;2023-08-17T11:50:03;100983.16;;;31.40;38.44
79150;BME280;68563;45.644;13.782;2023-08-17T11:52:30;100980.09;;;31.34;38.16
79150;BME280;68563;45.644;13.782;2023-08-17T11:54:58;100981.19;;;31.42;37.68
79150;BME280;68563;45.644;13.782;2023-08-17T11:57:23;100981.19;;;31.42;37.69
79150;BME280;68563;45.644;13.782;2023-08-17T11:59:52;100984.00;;;31.40;37.74
79150;BME280;68563;45.644;13.782;2023-08-17T12:02:18;100979.66;;;31.39;38.63
79150;BME280;68563;45.644;13.782;2023-08-17T12:04:44;100976.72;;;31.32;39.02
79150;BME280;68563;45.644;13.782;2023-08-17T12:07:10;100974.72;;;31.34;39.27
79150;BME280;68563;45.644;13.782;2023-08-17T12:09:36;100977.16;;;31.28;39.28
79150;BME280;68563;45.644;13.782;2023-08-17T12:12:01;100972.66;;;31.28;39.38
79150;BME280;68563;45.644;13.782;2023-08-17T12:14:27;100970.56;;;31.22;40.09
79150;BME280;68563;45.644;13.782;2023-08-17T12:16:53;100973.78;;;31.26;40.99
79150;BME280;68563;45.644;13.782;2023-08-17T12:19:20;100970.41;;;31.24;40.47
79150;BME280;68563;45.644;13.782;2023-08-17T12:21:48;100960.97;;;31.19;41.23
79150;BME280;68563;45.644;13.782;2023-08-17T12:24:13;100961.31;;;31.16;41.51
79150;BME280;68563;45.644;13.782;2023-08-17T12:26:43;100955.13;;;31.16;41.73
79150;BME280;68563;45.644;13.782;2023-08-17T12:29:09;100953.28;;;31.16;42.37
79150;BME280;68563;45.644;13.782;2023-08-17T12:31:35;100949.91;;;31.14;43.13
79150;BME280;68563;45.644;13.782;2023-08-17T12:34:01;100953.44;;;31.15;42.46
79150;BME280;68563;45.644;13.782;2023-08-17T12:36:26;100948.75;;;31.17;43.29
79150;BME280;68563;45.644;13.782;2023-08-17T12:38:52;100942.41;;;31.18;43.89
79150;BME280;68563;45.644;13.782;2023-08-17T12:41:18;100945.78;;;31.20;44.36
79150;BME280;68563;45.644;13.782;2023-08-17T12:43:43;100940.88;;;31.15;44.42
79150;BME280;68563;45.644;13.782;2023-08-17T12:46:09;100941.03;;;31.14;44.98